sensor_id;sensor_type;location;lat;lon;timestamp;temperature;humidity
38788;DHT22;24536;45.488;12.238;2023-11-21T00:01:59;11.70;93.60
38788;DHT22;24536;45.488;12.238;2023-11-21T00:04:25;11.70;93.60
38788;DHT22;24536;45.488;12.238;2023-11-21T00:06:54;11.70;93.60
38788;DHT22;24536;45.488;12.238;2023-11-21T00:09:20;11.70;93.60
38788;DHT22;24536;45.488;12.238;2023-11-21T00:11:45;11.70;93.80
38788;DHT22;24536;45.488;12.238;2023-11-21T00:14:11;11.70;93.80
38788;DHT22;24536;45.488;12.238;2023-11-21T00:16:37;11.70;93.80
38788;DHT22;24536;45.488;12.238;2023-11-21T00:19:02;11.70;93.80
38788;DHT22;24536;45.488;12.238;2023-11-21T00:21:28;11.70;93.80
38788;DHT22;24536;45.488;12.238;2023-11-21T00:23:54;11.60;93.70
38788;DHT22;24536;45.488;12.238;2023-11-21T00:26:19;11.60;93.80
38788;DHT22;24536;45.488;12.238;2023-11-21T00:28:45;11.60;93.70
38788;DHT22;24536;45.488;12.238;2023-11-21T00:31:11;11.60;93.80
38788;DHT22;24536;45.488;12.238;2023-11-21T00:33:36;11.60;93.90
38788;DHT22;24536;45.488;12.238;2023-11-21T00:36:02;11.60;94.00
38788;DHT22;24536;45.488;12.238;2023-11-21T00:38:28;11.60;94.00
38788;DHT22;24536;45.488;12.238;2023-11-21T00:40:54;11.60;94.00
38788;DHT22;24536;45.488;12.238;2023-11-21T00:43:24;11.60;94.00
38788;DHT22;24536;45.488;12.238;2023-11-21T00:45:50;11.60;93.90
38788;DHT22;24536;45.488;12.238;2023-11-21T00:48:16;11.60;94.00
38788;DHT22;24536;45.488;12.238;2023-11-21T00:50:43;11.60;94.00
38788;DHT22;24536;45.488;12.238;2023-11-21T00:53:09;11.60;94.10
38788;DHT22;24536;45.488;12.238;2023-11-21T00:55:36;11.50;94.10
38788;DHT22;24536;45.488;12.238;2023-11-21T00:58:02;11.50;94.10
38788;DHT22;24536;45.488;12.238;2023-11-21T01:00:29;11.50;94.20
38788;DHT22;24536;45.488;12.238;2023-11-21T01:02:55;11.50;94.10
38788;DHT22;24536;45.488;12.238;2023-11-21T01:05:21;11.50;94.20
38788;DHT22;24536;45.488;12.238;2023-11-21T01:07:46;11.50;94.20
38788;DHT22;24536;45.488;12.238;2023-11-21T01:10:12;11.60;94.30
38788;DHT22;24536;45.488;12.238;2023-11-21T01:12:39;11.60;94.20
38788;DHT22;24536;45.488;12.238;2023-11-21T01:15:05;11.60;94.20
38788;DHT22;24536;45.488;12.238;2023-11-21T01:17:34;11.60;94.30
38788;DHT22;24536;45.488;12.238;2023-11-21T01:20:01;11.60;94.40
38788;DHT22;24536;45.488;12.238;2023-11-21T01:22:28;11.60;94.40
38788;DHT22;24536;45.488;12.238;2023-11-21T01:24:54;11.70;94.40
38788;DHT22;24536;45.488;12.238;2023-11-21T01:27:20;11.70;94.40
38788;DHT22;24536;45.488;12.238;2023-11-21T01:29:45;11.60;94.40
38788;DHT22;24536;45.488;12.238;2023-11-21T01:32:11;11.60;94.50
38788;DHT22;24536;45.488;12.238;2023-11-21T01:34:37;11.60;94.60
38788;DHT22;24536;45.488;12.238;2023-11-21T01:37:03;11.60;94.60
38788;DHT22;24536;45.488;12.238;2023-11-21T01:39:30;11.50;94.70
38788;DHT22;24536;45.488;12.238;2023-11-21T01:41:57;11.50;94.80
38788;DHT22;24536;45.488;12.238;2023-11-21T01:44:26;11.50;94.80
38788;DHT22;24536;45.488;12.238;2023-11-21T01:46:52;11.40;94.90
38788;DHT22;24536;45.488;12.238;2023-11-21T01:49:19;11.50;94.90
38788;DHT22;24536;45.488;12.238;2023-11-21T01:51:48;11.50;94.80
38788;DHT22;24536;45.488;12.238;2023-11-21T01:54:16;11.50;94.80
38788;DHT22;24536;45.488;12.238;2023-11-21T01:56:44;11.50;94.80
38788;DHT22;24536;45.488;12.238;2023-11-21T01:59:12;11.50;94.90
38788;DHT22;24536;45.488;12.238;2023-11-21T02:01:39;11.50;94.80
38788;DHT22;24536;45.488;12.238;2023-11-21T02:04:06;11.50;94.70
38788;DHT22;24536;45.488;12.238;2023-11-21T02:06:33;11.50;94.70
38788;DHT22;24536;45.488;12.238;2023-11-21T02:08:59;11.50;94.80
38788;DHT22;24536;45.488;12.238;2023-11-21T02:11:28;11.50;94.70
38788;DHT22;24536;45.488;12.238;2023-11-21T02:13:54;11.50;94.70
38788;DHT22;24536;45.488;12.238;2023-11-21T02:16:20;11.50;94.70
38788;DHT22;24536;45.488;12.238;2023-11-21T02:18:47;11.50;94.70
38788;DHT22;24536;45.488;12.238;2023-11-21T02:21:14;11.50;94.70
38788;DHT22;24536;45.488;12.238;2023-11-21T02:23:40;11.50;94.50
38788;DHT22;24536;45.488;12.238;2023-11-21T02:26:10;11.40;94.50
38788;DHT22;24536;45.488;12.238;2023-11-21T02:28:36;11.40;94.60
38788;DHT22;24536;45.488;12.238;2023-11-21T02:31:02;11.40;94.60
38788;DHT22;24536;45.488;12.238;2023-11-21T02:33:30;11.30;94.60
38788;DHT22;24536;45.488;12.238;2023-11-21T02:36:00;11.30;94.60
38788;DHT22;24536;45.488;12.238;2023-11-21T02:38:25;11.30;94.60
38788;DHT22;24536;45.488;12.238;2023-11-21T02:40:51;11.30;94.50
38788;DHT22;24536;45.488;12.238;2023-11-21T02:43:17;11.20;94.50
38788;DHT22;24536;45.488;12.238;2023-11-21T02:45:43;11.20;94.60
38788;DHT22;24536;45.488;12.238;2023-11-21T02:48:08;11.20;94.50
38788;DHT22;24536;45.488;12.238;2023-11-21T02:50:34;11.20;94.60
38788;DHT22;24536;45.488;12.238;2023-11-21T02:53:01;11.20;94.50
38788;DHT22;24536;45.488;12.238;2023-11-21T02:55:27;11.20;94.40
38788;DHT22;24536;45.488;12.238;2023-11-21T02:57:54;11.20;94.40
38788;DHT22;24536;45.488;12.238;2023-11-21T03:00:21;11.30;94.40
38788;DHT22;24536;45.488;12.238;2023-11-21T03:02:49;11.30;94.30
38788;DHT22;24536;45.488;12.238;2023-11-21T03:05:15;11.30;94.20
38788;DHT22;24536;45.488;12.238;2023-11-21T03:07:41;11.30;94.20
38788;DHT22;24536;45.488;12.238;2023-11-21T03:10:08;11.30;94.10
38788;DHT22;24536;45.488;12.238;2023-11-21T03:12:39;11.20;94.00
38788;DHT22;24536;45.488;12.238;2023-11-21T03:15:06;11.30;93.90
38788;DHT22;24536;45.488;12.238;2023-11-21T03:17:32;11.20;93.90
38788;DHT22;24536;45.488;12.238;2023-11-21T03:20:00;11.20;93.80
38788;DHT22;24536;45.488;12.238;2023-11-21T03:22:26;11.20;93.90
38788;DHT22;24536;45.488;12.238;2023-11-21T03:24:52;11.30;94.00
38788;DHT22;24536;45.488;12.238;2023-11-21T03:27:18;11.30;93.90
38788;DHT22;24536;45.488;12.238;2023-11-21T03:29:44;11.30;93.80
38788;DHT22;24536;45.488;12.238;2023-11-21T03:32:12;11.30;93.80
38788;DHT22;24536;45.488;12.238;2023-11-21T03:34:56;11.30;93.80
38788;DHT22;24536;45.488;12.238;2023-11-21T03:37:22;11.30;93.80
38788;DHT22;24536;45.488;12.238;2023-11-21T03:39:47;11.30;93.80
38788;DHT22;24536;45.488;12.238;2023-11-21T03:42:13;11.30;93.80
38788;DHT22;24536;45.488;12.238;2023-11-21T03:44:39;11.30;93.90
38788;DHT22;24536;45.488;12.238;2023-11-21T03:47:04;11.30;94.00
38788;DHT22;24536;45.488;12.238;2023-11-21T03:49:31;11.30;94.00
38788;DHT22;24536;45.488;12.238;2023-11-21T03:51:56;11.30;93.80
38788;DHT22;24536;45.488;12.238;2023-11-21T03:54:22;11.30;93.70
38788;DHT22;24536;45.488;12.238;2023-11-21T03:56:48;11.30;93.70
38788;DHT22;24536;45.488;12.238;2023-11-21T03:59:14;11.30;93.70
38788;DHT22;24536;45.488;12.238;2023-11-21T04:01:40;11.20;93.70
38788;DHT22;24536;45.488;12.238;2023-11-21T04:04:05;11.20;93.80
38788;DHT22;24536;45.488;12.238;2023-11-21T04:06:31;11.20;93.90
38788;DHT22;24536;45.488;12.238;2023-11-21T04:08:58;11.20;93.80
38788;DHT22;24536;45.488;12.238;2023-11-21T04:11:24;11.20;93.70
38788;DHT22;24536;45.488;12.238;2023-11-21T04:13:50;11.20;93.80
38788;DHT22;24536;45.488;12.238;2023-11-21T04:16:15;11.20;93.80
38788;DHT22;24536;45.488;12.238;2023-11-21T04:18:41;11.20;93.80
38788;DHT22;24536;45.488;12.238;2023-11-21T04:21:07;11.10;93.70
38788;DHT22;24536;45.488;12.238;2023-11-21T04:23:33;11.00;93.80
38788;DHT22;24536;45.488;12.238;2023-11-21T04:26:00;11.00;93.90
38788;DHT22;24536;45.488;12.238;2023-11-21T04:28:27;11.00;93.90
38788;DHT22;24536;45.488;12.238;2023-11-21T04:30:53;10.90;94.00
38788;DHT22;24536;45.488;12.238;2023-11-21T04:33:19;10.90;94.00
38788;DHT22;24536;45.488;12.238;2023-11-21T04:35:44;10.90;93.90
38788;DHT22;24536;45.488;12.238;2023-11-21T04:38:10;10.90;93.90
38788;DHT22;24536;45.488;12.238;2023-11-21T04:40:36;10.90;94.00
38788;DHT22;24536;45.488;12.238;2023-11-21T04:43:02;10.90;94.00
38788;DHT22;24536;45.488;12.238;2023-11-21T04:45:29;10.90;94.00
38788;DHT22;24536;45.488;12.238;2023-11-21T04:47:55;10.90;93.90
38788;DHT22;24536;45.488;12.238;2023-11-21T04:50:21;11.00;94.00
38788;DHT22;24536;45.488;12.238;2023-11-21T04:52:47;11.00;94.00
38788;DHT22;24536;45.488;12.238;2023-11-21T04:55:13;11.00;94.00
38788;DHT22;24536;45.488;12.238;2023-11-21T04:57:39;11.00;93.90
38788;DHT22;24536;45.488;12.238;2023-11-21T05:00:09;11.00;94.20
38788;DHT22;24536;45.488;12.238;2023-11-21T05:02:35;11.00;94.00
38788;DHT22;24536;45.488;12.238;2023-11-21T05:05:01;11.00;94.00
38788;DHT22;24536;45.488;12.238;2023-11-21T05:07:27;11.00;94.00
38788;DHT22;24536;45.488;12.238;2023-11-21T05:09:55;11.00;93.90
38788;DHT22;24536;45.488;12.238;2023-11-21T05:12:24;11.00;93.80
38788;DHT22;24536;45.488;12.238;2023-11-21T05:14:51;11.00;93.90
38788;DHT22;24536;45.488;12.238;2023-11-21T05:17:16;11.00;93.80
38788;DHT22;24536;45.488;12.238;2023-11-21T05:19:42;11.00;93.80
38788;DHT22;24536;45.488;12.238;2023-11-21T05:22:10;11.00;93.90
38788;DHT22;24536;45.488;12.238;2023-11-21T05:24:37;10.90;93.90
38788;DHT22;24536;45.488;12.238;2023-11-21T05:27:04;11.00;93.90
38788;DHT22;24536;45.488;12.238;2023-11-21T05:29:30;11.00;94.00
38788;DHT22;24536;45.488;12.238;2023-11-21T05:31:56;11.00;94.00
38788;DHT22;24536;45.488;12.238;2023-11-21T05:34:22;11.00;93.90
38788;DHT22;24536;45.488;12.238;2023-11-21T05:36:50;11.00;93.80
38788;DHT22;24536;45.488;12.238;2023-11-21T05:39:15;10.90;93.80
38788;DHT22;24536;45.488;12.238;2023-11-21T05:41:43;10.90;93.90
38788;DHT22;24536;45.488;12.238;2023-11-21T05:44:08;10.90;94.00
38788;DHT22;24536;45.488;12.238;2023-11-21T05:46:34;10.90;94.10
38788;DHT22;24536;45.488;12.238;2023-11-21T05:49:00;10.90;94.10
38788;DHT22;24536;45.488;12.238;2023-11-21T05:51:26;10.90;94.00
38788;DHT22;24536;45.488;12.238;2023-11-21T05:53:52;10.90;94.10
38788;DHT22;24536;45.488;12.238;2023-11-21T05:56:17;10.80;94.10
38788;DHT22;24536;45.488;12.238;2023-11-21T05:58:43;10.80;94.10
38788;DHT22;24536;45.488;12.238;2023-11-21T06:01:09;10.80;94.10
38788;DHT22;24536;45.488;12.238;2023-11-21T06:03:38;10.80;94.10
38788;DHT22;24536;45.488;12.238;2023-11-21T06:06:04;10.70;94.20
38788;DHT22;24536;45.488;12.238;2023-11-21T06:08:32;10.70;94.20
38788;DHT22;24536;45.488;12.238;2023-11-21T06:11:04;10.80;94.30
38788;DHT22;24536;45.488;12.238;2023-11-21T06:13:29;10.80;94.40
38788;DHT22;24536;45.488;12.238;2023-11-21T06:15:56;10.80;94.30
38788;DHT22;24536;45.488;12.238;2023-11-21T06:18:21;10.80;94.30
38788;DHT22;24536;45.488;12.238;2023-11-21T06:20:47;10.80;94.30
38788;DHT22;24536;45.488;12.238;2023-11-21T06:23:13;10.70;94.30
38788;DHT22;24536;45.488;12.238;2023-11-21T06:25:39;10.70;94.30
38788;DHT22;24536;45.488;12.238;2023-11-21T06:28:05;10.70;94.40
38788;DHT22;24536;45.488;12.238;2023-11-21T06:30:31;10.60;94.40
38788;DHT22;24536;45.488;12.238;2023-11-21T06:32:57;10.60;94.40
38788;DHT22;24536;45.488;12.238;2023-11-21T06:35:23;10.60;94.50
38788;DHT22;24536;45.488;12.238;2023-11-21T06:37:49;10.60;94.50
38788;DHT22;24536;45.488;12.238;2023-11-21T06:40:15;10.70;94.50
38788;DHT22;24536;45.488;12.238;2023-11-21T06:42:41;10.70;94.50
38788;DHT22;24536;45.488;12.238;2023-11-21T06:45:07;10.70;94.50
38788;DHT22;24536;45.488;12.238;2023-11-21T06:47:36;10.70;94.40
38788;DHT22;24536;45.488;12.238;2023-11-21T06:50:03;10.70;94.40
38788;DHT22;24536;45.488;12.238;2023-11-21T06:52:29;10.70;94.50
38788;DHT22;24536;45.488;12.238;2023-11-21T06:54:55;10.70;94.40
38788;DHT22;24536;45.488;12.238;2023-11-21T06:57:23;10.70;94.40
38788;DHT22;24536;45.488;12.238;2023-11-21T06:59:49;10.70;94.30
38788;DHT22;24536;45.488;12.238;2023-11-21T07:02:16;10.70;96.30
38788;DHT22;24536;45.488;12.238;2023-11-21T07:04:46;10.80;94.90
38788;DHT22;24536;45.488;12.238;2023-11-21T07:07:12;10.80;94.60
38788;DHT22;24536;45.488;12.238;2023-11-21T07:09:41;10.80;94.40
38788;DHT22;24536;45.488;12.238;2023-11-21T07:12:09;10.80;94.30
38788;DHT22;24536;45.488;12.238;2023-11-21T07:14:36;10.70;94.20
38788;DHT22;24536;45.488;12.238;2023-11-21T07:17:04;10.70;94.20
38788;DHT22;24536;45.488;12.238;2023-11-21T07:19:30;10.70;94.30
38788;DHT22;24536;45.488;12.238;2023-11-21T07:22:02;10.70;94.30
38788;DHT22;24536;45.488;12.238;2023-11-21T07:24:28;10.80;94.20
38788;DHT22;24536;45.488;12.238;2023-11-21T07:26:53;10.80;94.10
38788;DHT22;24536;45.488;12.238;2023-11-21T07:29:23;10.90;94.00
38788;DHT22;24536;45.488;12.238;2023-11-21T07:31:51;10.90;93.90
38788;DHT22;24536;45.488;12.238;2023-11-21T07:34:17;10.80;93.90
38788;DHT22;24536;45.488;12.238;2023-11-21T07:36:43;10.90;93.90
38788;DHT22;24536;45.488;12.238;2023-11-21T07:39:08;10.90;93.80
38788;DHT22;24536;45.488;12.238;2023-11-21T07:41:34;10.90;93.80
38788;DHT22;24536;45.488;12.238;2023-11-21T07:44:00;10.90;93.70
38788;DHT22;24536;45.488;12.238;2023-11-21T07:46:26;11.00;93.60
38788;DHT22;24536;45.488;12.238;2023-11-21T07:48:52;11.00;93.60
38788;DHT22;24536;45.488;12.238;2023-11-21T07:51:18;11.00;93.60
38788;DHT22;24536;45.488;12.238;2023-11-21T07:53:44;11.10;93.50
38788;DHT22;24536;45.488;12.238;2023-11-21T07:56:10;11.10;93.20
38788;DHT22;24536;45.488;12.238;2023-11-21T07:58:36;11.10;93.30
38788;DHT22;24536;45.488;12.238;2023-11-21T08:01:04;11.10;93.20
38788;DHT22;24536;45.488;12.238;2023-11-21T08:03:31;11.20;93.40
38788;DHT22;24536;45.488;12.238;2023-11-21T08:05:57;11.20;93.20
38788;DHT22;24536;45.488;12.238;2023-11-21T08:08:24;11.20;93.20
38788;DHT22;24536;45.488;12.238;2023-11-21T08:10:50;11.20;93.20
38788;DHT22;24536;45.488;12.238;2023-11-21T08:13:26;11.20;93.20
38788;DHT22;24536;45.488;12.238;2023-11-21T08:15:54;11.30;93.00
38788;DHT22;24536;45.488;12.238;2023-11-21T08:18:21;11.30;92.90
38788;DHT22;24536;45.488;12.238;2023-11-21T08:20:48;11.30;92.90
38788;DHT22;24536;45.488;12.238;2023-11-21T08:23:16;11.30;92.90
38788;DHT22;24536;45.488;12.238;2023-11-21T08:25:43;11.30;92.90
38788;DHT22;24536;45.488;12.238;2023-11-21T08:28:09;11.30;93.00
38788;DHT22;24536;45.488;12.238;2023-11-21T08:30:35;11.30;92.90
38788;DHT22;24536;45.488;12.238;2023-11-21T08:33:01;11.30;92.90
38788;DHT22;24536;45.488;12.238;2023-11-21T08:35:28;11.30;93.00
38788;DHT22;24536;45.488;12.238;2023-11-21T08:37:54;11.30;93.00
38788;DHT22;24536;45.488;12.238;2023-11-21T08:40:20;11.30;92.90
38788;DHT22;24536;45.488;12.238;2023-11-21T08:42:50;11.30;93.00
38788;DHT22;24536;45.488;12.238;2023-11-21T08:45:18;11.30;93.00
38788;DHT22;24536;45.488;12.238;2023-11-21T08:47:45;11.30;93.10
38788;DHT22;24536;45.488;12.238;2023-11-21T08:50:11;11.40;93.20
38788;DHT22;24536;45.488;12.238;2023-11-21T08:52:40;11.40;93.30
38788;DHT22;24536;45.488;12.238;2023-11-21T08:55:07;11.50;93.20
38788;DHT22;24536;45.488;12.238;2023-11-21T08:57:38;11.60;93.10
38788;DHT22;24536;45.488;12.238;2023-11-21T09:00:05;11.60;93.20
38788;DHT22;24536;45.488;12.238;2023-11-21T09:02:35;11.70;93.20
38788;DHT22;24536;45.488;12.238;2023-11-21T09:05:03;11.70;93.00
38788;DHT22;24536;45.488;12.238;2023-11-21T09:07:29;11.70;92.80
38788;DHT22;24536;45.488;12.238;2023-11-21T09:09:55;11.70;92.70
38788;DHT22;24536;45.488;12.238;2023-11-21T09:12:21;11.70;92.60
38788;DHT22;24536;45.488;12.238;2023-11-21T09:14:47;11.70;92.40
38788;DHT22;24536;45.488;12.238;2023-11-21T09:17:13;11.80;92.70
38788;DHT22;24536;45.488;12.238;2023-11-21T09:19:40;11.80;92.80
38788;DHT22;24536;45.488;12.238;2023-11-21T09:22:07;11.80;92.80
38788;DHT22;24536;45.488;12.238;2023-11-21T09:24:33;11.80;92.60
38788;DHT22;24536;45.488;12.238;2023-11-21T09:26:59;11.80;92.80
38788;DHT22;24536;45.488;12.238;2023-11-21T09:29:28;11.90;92.80
38788;DHT22;24536;45.488;12.238;2023-11-21T09:31:54;11.90;92.80
38788;DHT22;24536;45.488;12.238;2023-11-21T09:34:21;11.90;92.90
38788;DHT22;24536;45.488;12.238;2023-11-21T09:36:47;12.00;93.00
38788;DHT22;24536;45.488;12.238;2023-11-21T09:39:13;12.10;93.00
38788;DHT22;24536;45.488;12.238;2023-11-21T09:41:46;12.10;92.90
38788;DHT22;24536;45.488;12.238;2023-11-21T09:44:32;12.20;93.00
38788;DHT22;24536;45.488;12.238;2023-11-21T09:47:01;12.30;93.10
38788;DHT22;24536;45.488;12.238;2023-11-21T09:49:28;12.30;93.00
38788;DHT22;24536;45.488;12.238;2023-11-21T09:51:58;12.30;93.00
38788;DHT22;24536;45.488;12.238;2023-11-21T09:54:29;12.30;93.10
38788;DHT22;24536;45.488;12.238;2023-11-21T09:56:54;12.30;93.10
38788;DHT22;24536;45.488;12.238;2023-11-21T09:59:21;12.40;93.20
38788;DHT22;24536;45.488;12.238;2023-11-21T10:01:47;12.30;93.20
38788;DHT22;24536;45.488;12.238;2023-11-21T10:04:13;12.40;93.30
38788;DHT22;24536;45.488;12.238;2023-11-21T10:06:40;12.40;93.30
38788;DHT22;24536;45.488;12.238;2023-11-21T10:09:12;12.40;93.40
38788;DHT22;24536;45.488;12.238;2023-11-21T10:11:42;12.40;93.40
38788;DHT22;24536;45.488;12.238;2023-11-21T10:14:12;12.40;93.40
38788;DHT22;24536;45.488;12.238;2023-11-21T10:16:40;12.40;93.40
38788;DHT22;24536;45.488;12.238;2023-11-21T10:19:06;12.40;93.50
38788;DHT22;24536;45.488;12.238;2023-11-21T10:21:33;12.40;93.60
38788;DHT22;24536;45.488;12.238;2023-11-21T10:23:59;12.40;93.60
38788;DHT22;24536;45.488;12.238;2023-11-21T10:26:29;12.40;93.70
38788;DHT22;24536;45.488;12.238;2023-11-21T10:29:01;12.40;93.70
38788;DHT22;24536;45.488;12.238;2023-11-21T10:31:30;12.50;93.80
38788;DHT22;24536;45.488;12.238;2023-11-21T10:34:16;12.50;93.80
38788;DHT22;24536;45.488;12.238;2023-11-21T10:36:42;12.50;93.90
38788;DHT22;24536;45.488;12.238;2023-11-21T10:39:08;12.50;93.90
38788;DHT22;24536;45.488;12.238;2023-11-21T10:41:35;12.50;93.90
38788;DHT22;24536;45.488;12.238;2023-11-21T10:44:02;12.50;94.30
38788;DHT22;24536;45.488;12.238;2023-11-21T10:46:32;12.60;94.30
38788;DHT22;24536;45.488;12.238;2023-11-21T10:48:59;12.60;95.30
38788;DHT22;24536;45.488;12.238;2023-11-21T10:51:25;12.60;94.60
38788;DHT22;24536;45.488;12.238;2023-11-21T10:53:54;12.70;94.60
38788;DHT22;24536;45.488;12.238;2023-11-21T10:56:23;12.80;94.60
38788;DHT22;24536;45.488;12.238;2023-11-21T10:58:49;12.80;94.50
38788;DHT22;24536;45.488;12.238;2023-11-21T11:01:19;12.90;94.50
38788;DHT22;24536;45.488;12.238;2023-11-21T11:03:50;13.00;94.40
38788;DHT22;24536;45.488;12.238;2023-11-21T11:06:21;13.10;94.20
38788;DHT22;24536;45.488;12.238;2023-11-21T11:08:47;13.20;94.10
38788;DHT22;24536;45.488;12.238;2023-11-21T11:11:13;13.20;93.90
38788;DHT22;24536;45.488;12.238;2023-11-21T11:13:43;13.30;93.90
38788;DHT22;24536;45.488;12.238;2023-11-21T11:16:10;13.40;93.80
38788;DHT22;24536;45.488;12.238;2023-11-21T11:18:37;13.40;93.60
38788;DHT22;24536;45.488;12.238;2023-11-21T11:24:13;13.50;93.40
38788;DHT22;24536;45.488;12.238;2023-11-21T11:32:16;13.70;93.10
38788;DHT22;24536;45.488;12.238;2023-11-21T11:34:57;13.70;92.90
38788;DHT22;24536;45.488;12.238;2023-11-21T11:37:26;13.80;92.90
38788;DHT22;24536;45.488;12.238;2023-11-21T11:39:52;13.90;92.80
38788;DHT22;24536;45.488;12.238;2023-11-21T11:42:21;13.90;92.50
38788;DHT22;24536;45.488;12.238;2023-11-21T11:44:49;14.00;92.40
38788;DHT22;24536;45.488;12.238;2023-11-21T11:47:20;14.00;92.20
38788;DHT22;24536;45.488;12.238;2023-11-21T11:50:11;14.10;92.20
38788;DHT22;24536;45.488;12.238;2023-11-21T11:52:49;14.10;92.10
38788;DHT22;24536;45.488;12.238;2023-11-21T11:55:21;14.10;92.00
38788;DHT22;24536;45.488;12.238;2023-11-21T11:57:49;14.20;92.00
38788;DHT22;24536;45.488;12.238;2023-11-21T12:02:56;14.20;92.10
38788;DHT22;24536;45.488;12.238;2023-11-21T12:05:22;14.20;92.30
38788;DHT22;24536;45.488;12.238;2023-11-21T12:07:55;14.30;92.10
38788;DHT22;24536;45.488;12.238;2023-11-21T12:10:28;14.30;92.00
38788;DHT22;24536;45.488;12.238;2023-11-21T12:12:57;14.40;91.80
38788;DHT22;24536;45.488;12.238;2023-11-21T12:15:24;14.50;91.60
38788;DHT22;24536;45.488;12.238;2023-11-21T12:17:52;14.50;91.50
38788;DHT22;24536;45.488;12.238;2023-11-21T12:20:20;14.50;91.30
38788;DHT22;24536;45.488;12.238;2023-11-21T12:22:51;14.60;91.50
38788;DHT22;24536;45.488;12.238;2023-11-21T12:25:17;14.60;91.60
38788;DHT22;24536;45.488;12.238;2023-11-21T12:27:50;14.60;91.80
38788;DHT22;24536;45.488;12.238;2023-11-21T12:30:20;14.60;91.70
38788;DHT22;24536;45.488;12.238;2023-11-21T12:32:55;14.60;91.40
38788;DHT22;24536;45.488;12.238;2023-11-21T12:35:23;14.60;91.80
38788;DHT22;24536;45.488;12.238;2023-11-21T12:37:51;14.70;91.30
38788;DHT22;24536;45.488;12.238;2023-11-21T12:40:18;14.60;91.60
38788;DHT22;24536;45.488;12.238;2023-11-21T12:42:48;14.60;91.20
38788;DHT22;24536;45.488;12.238;2023-11-21T12:47:43;14.70;91.50
38788;DHT22;24536;45.488;12.238;2023-11-21T12:50:10;14.60;90.80
38788;DHT22;24536;45.488;12.238;2023-11-21T12:52:46;14.60;90.80
38788;DHT22;24536;45.488;12.238;2023-11-21T12:55:19;14.60;90.70
38788;DHT22;24536;45.488;12.238;2023-11-21T12:57:49;14.60;90.80
38788;DHT22;24536;45.488;12.238;2023-11-21T13:00:20;14.50;90.70
38788;DHT22;24536;45.488;12.238;2023-11-21T13:02:56;14.50;90.60
38788;DHT22;24536;45.488;12.238;2023-11-21T13:05:35;14.50;90.60
38788;DHT22;24536;45.488;12.238;2023-11-21T13:08:08;14.50;90.70
38788;DHT22;24536;45.488;12.238;2023-11-21T13:10:36;14.40;90.60
38788;DHT22;24536;45.488;12.238;2023-11-21T13:13:04;14.40;90.60
38788;DHT22;24536;45.488;12.238;2023-11-21T13:15:57;14.40;90.60
38788;DHT22;24536;45.488;12.238;2023-11-21T13:18:27;14.40;90.70
38788;DHT22;24536;45.488;12.238;2023-11-21T13:20:57;14.40;90.70
38788;DHT22;24536;45.488;12.238;2023-11-21T13:23:25;14.40;90.70
38788;DHT22;24536;45.488;12.238;2023-11-21T13:25:53;14.40;90.80
38788;DHT22;24536;45.488;12.238;2023-11-21T13:28:19;14.40;90.80
38788;DHT22;24536;45.488;12.238;2023-11-21T13:30:47;14.40;90.80
38788;DHT22;24536;45.488;12.238;2023-11-21T13:33:14;14.40;90.80
38788;DHT22;24536;45.488;12.238;2023-11-21T13:35:46;14.40;90.90
38788;DHT22;24536;45.488;12.238;2023-11-21T13:38:17;14.40;91.00
38788;DHT22;24536;45.488;12.238;2023-11-21T13:40:48;14.40;91.00
38788;DHT22;24536;45.488;12.238;2023-11-21T13:43:21;14.40;91.20
38788;DHT22;24536;45.488;12.238;2023-11-21T13:45:51;14.30;91.10
38788;DHT22;24536;45.488;12.238;2023-11-21T13:48:27;14.30;91.00
38788;DHT22;24536;45.488;12.238;2023-11-21T13:51:17;14.30;91.10
38788;DHT22;24536;45.488;12.238;2023-11-21T13:53:49;14.30;91.00
38788;DHT22;24536;45.488;12.238;2023-11-21T13:56:18;14.30;91.10
38788;DHT22;24536;45.488;12.238;2023-11-21T13:58:49;14.30;91.20
38788;DHT22;24536;45.488;12.238;2023-11-21T14:01:20;14.30;91.20
38788;DHT22;24536;45.488;12.238;2023-11-21T14:03:49;14.30;91.10
38788;DHT22;24536;45.488;12.238;2023-11-21T14:06:22;14.30;91.30
38788;DHT22;24536;45.488;12.238;2023-11-21T14:08:52;14.20;91.00
38788;DHT22;24536;45.488;12.238;2023-11-21T14:11:19;14.20;91.00
38788;DHT22;24536;45.488;12.238;2023-11-21T14:13:47;14.20;91.00
38788;DHT22;24536;45.488;12.238;2023-11-21T14:16:14;14.20;90.90
38788;DHT22;24536;45.488;12.238;2023-11-21T14:18:42;14.20;90.90
38788;DHT22;24536;45.488;12.238;2023-11-21T14:21:19;14.20;92.00
38788;DHT22;24536;45.488;12.238;2023-11-21T14:23:45;14.20;91.30
38788;DHT22;24536;45.488;12.238;2023-11-21T14:26:11;14.20;91.00
38788;DHT22;24536;45.488;12.238;2023-11-21T14:28:43;14.20;91.00
38788;DHT22;24536;45.488;12.238;2023-11-21T14:31:09;14.20;90.90
38788;DHT22;24536;45.488;12.238;2023-11-21T14:33:41;14.20;90.80
38788;DHT22;24536;45.488;12.238;2023-11-21T14:36:07;14.20;90.90
38788;DHT22;24536;45.488;12.238;2023-11-21T14:38:36;14.20;91.00
38788;DHT22;24536;45.488;12.238;2023-11-21T14:41:02;14.20;90.90
38788;DHT22;24536;45.488;12.238;2023-11-21T14:43:29;14.20;90.90
38788;DHT22;24536;45.488;12.238;2023-11-21T14:45:59;14.20;90.90
38788;DHT22;24536;45.488;12.238;2023-11-21T14:48:25;14.30;90.80
38788;DHT22;24536;45.488;12.238;2023-11-21T14:51:13;14.30;90.50
38788;DHT22;24536;45.488;12.238;2023-11-21T14:53:58;14.30;90.60
38788;DHT22;24536;45.488;12.238;2023-11-21T14:56:32;14.30;90.50
38788;DHT22;24536;45.488;12.238;2023-11-21T14:59:03;14.30;90.50
38788;DHT22;24536;45.488;12.238;2023-11-21T15:01:34;14.30;90.40
38788;DHT22;24536;45.488;12.238;2023-11-21T15:04:21;14.30;90.40
38788;DHT22;24536;45.488;12.238;2023-11-21T15:07:00;14.30;90.50
38788;DHT22;24536;45.488;12.238;2023-11-21T15:09:25;14.30;90.60
38788;DHT22;24536;45.488;12.238;2023-11-21T15:11:54;14.30;90.50
38788;DHT22;24536;45.488;12.238;2023-11-21T15:14:24;14.30;90.50
38788;DHT22;24536;45.488;12.238;2023-11-21T15:16:51;14.20;90.60
38788;DHT22;24536;45.488;12.238;2023-11-21T15:19:19;14.20;90.80
38788;DHT22;24536;45.488;12.238;2023-11-21T15:21:50;14.20;90.80
38788;DHT22;24536;45.488;12.238;2023-11-21T15:24:16;14.20;91.00
38788;DHT22;24536;45.488;12.238;2023-11-21T15:26:42;14.20;91.10
38788;DHT22;24536;45.488;12.238;2023-11-21T15:29:08;14.20;91.30
38788;DHT22;24536;45.488;12.238;2023-11-21T15:31:34;14.20;91.50
38788;DHT22;24536;45.488;12.238;2023-11-21T15:34:01;14.10;91.60